sensor_id;sensor_type;location;lat;lon;timestamp;P1;durP1;ratioP1;P2;durP2;ratioP2
54125;SDS011;40360;52.992;6.796;2023-07-31T00:01:20;6.25;;;3.30;;
54125;SDS011;40360;52.992;6.796;2023-07-31T00:03:46;6.18;;;3.88;;
54125;SDS011;40360;52.992;6.796;2023-07-31T00:06:12;8.63;;;3.78;;
54125;SDS011;40360;52.992;6.796;2023-07-31T00:08:37;5.05;;;3.40;;
54125;SDS011;40360;52.992;6.796;2023-07-31T00:11:03;4.43;;;3.13;;
54125;SDS011;40360;52.992;6.796;2023-07-31T00:13:28;5.82;;;3.28;;
54125;SDS011;40360;52.992;6.796;2023-07-31T00:15:54;5.20;;;3.60;;
54125;SDS011;40360;52.992;6.796;2023-07-31T00:18:20;4.22;;;3.33;;
54125;SDS011;40360;52.992;6.796;2023-07-31T00:20:46;4.13;;;3.25;;
54125;SDS011;40360;52.992;6.796;2023-07-31T00:23:11;5.53;;;3.72;;
54125;SDS011;40360;52.992;6.796;2023-07-31T00:25:37;6.20;;;3.92;;
54125;SDS011;40360;52.992;6.796;2023-07-31T00:28:02;6.38;;;3.33;;
54125;SDS011;40360;52.992;6.796;2023-07-31T00:30:28;4.70;;;3.08;;
54125;SDS011;40360;52.992;6.796;2023-07-31T00:32:54;4.50;;;3.58;;
54125;SDS011;40360;52.992;6.796;2023-07-31T00:35:19;6.22;;;4.03;;
54125;SDS011;40360;52.992;6.796;2023-07-31T00:37:45;7.97;;;4.18;;
54125;SDS011;40360;52.992;6.796;2023-07-31T00:40:10;4.85;;;3.35;;
54125;SDS011;40360;52.992;6.796;2023-07-31T00:42:36;6.82;;;4.32;;
54125;SDS011;40360;52.992;6.796;2023-07-31T00:45:02;5.10;;;3.40;;
54125;SDS011;40360;52.992;6.796;2023-07-31T00:47:27;5.10;;;4.00;;
54125;SDS011;40360;52.992;6.796;2023-07-31T00:49:53;8.80;;;4.13;;
54125;SDS011;40360;52.992;6.796;2023-07-31T00:52:19;5.35;;;4.13;;
54125;SDS011;40360;52.992;6.796;2023-07-31T00:54:46;5.00;;;3.83;;
54125;SDS011;40360;52.992;6.796;2023-07-31T00:57:11;5.97;;;3.95;;
54125;SDS011;40360;52.992;6.796;2023-07-31T00:59:37;8.15;;;4.22;;
54125;SDS011;40360;52.992;6.796;2023-07-31T01:02:03;4.97;;;3.83;;
54125;SDS011;40360;52.992;6.796;2023-07-31T01:04:29;6.10;;;4.50;;
54125;SDS011;40360;52.992;6.796;2023-07-31T01:07:04;5.82;;;4.47;;
54125;SDS011;40360;52.992;6.796;2023-07-31T01:09:47;5.60;;;3.95;;
54125;SDS011;40360;52.992;6.796;2023-07-31T01:12:20;5.15;;;3.92;;
54125;SDS011;40360;52.992;6.796;2023-07-31T01:14:51;5.05;;;3.50;;
54125;SDS011;40360;52.992;6.796;2023-07-31T01:17:27;4.55;;;3.53;;
54125;SDS011;40360;52.992;6.796;2023-07-31T01:19:54;4.70;;;3.28;;
54125;SDS011;40360;52.992;6.796;2023-07-31T01:22:32;5.00;;;3.08;;
54125;SDS011;40360;52.992;6.796;2023-07-31T01:28:04;3.95;;;3.25;;
54125;SDS011;40360;52.992;6.796;2023-07-31T01:30:33;4.05;;;2.80;;
54125;SDS011;40360;52.992;6.796;2023-07-31T01:33:02;4.88;;;2.35;;
54125;SDS011;40360;52.992;6.796;2023-07-31T01:35:32;3.67;;;2.78;;
54125;SDS011;40360;52.992;6.796;2023-07-31T01:37:58;2.42;;;2.03;;
54125;SDS011;40360;52.992;6.796;2023-07-31T01:40:24;2.85;;;2.10;;
54125;SDS011;40360;52.992;6.796;2023-07-31T01:42:50;2.83;;;2.10;;
54125;SDS011;40360;52.992;6.796;2023-07-31T01:45:15;3.30;;;2.05;;
54125;SDS011;40360;52.992;6.796;2023-07-31T01:47:41;5.32;;;2.40;;
54125;SDS011;40360;52.992;6.796;2023-07-31T01:50:07;3.10;;;1.52;;
54125;SDS011;40360;52.992;6.796;2023-07-31T01:52:32;2.85;;;1.85;;
54125;SDS011;40360;52.992;6.796;2023-07-31T01:54:58;3.58;;;2.03;;
54125;SDS011;40360;52.992;6.796;2023-07-31T01:57:24;2.40;;;1.40;;
54125;SDS011;40360;52.992;6.796;2023-07-31T01:59:49;1.33;;;1.10;;
54125;SDS011;40360;52.992;6.796;2023-07-31T02:02:15;1.88;;;1.35;;
54125;SDS011;40360;52.992;6.796;2023-07-31T02:04:41;1.48;;;1.10;;
54125;SDS011;40360;52.992;6.796;2023-07-31T02:07:07;3.08;;;0.93;;
54125;SDS011;40360;52.992;6.796;2023-07-31T02:09:32;1.05;;;0.88;;
54125;SDS011;40360;52.992;6.796;2023-07-31T02:11:58;1.73;;;1.42;;
54125;SDS011;40360;52.992;6.796;2023-07-31T02:14:23;3.30;;;1.20;;
54125;SDS011;40360;52.992;6.796;2023-07-31T02:16:49;1.73;;;1.10;;
54125;SDS011;40360;52.992;6.796;2023-07-31T02:19:15;1.90;;;1.08;;
54125;SDS011;40360;52.992;6.796;2023-07-31T02:21:40;1.30;;;1.05;;
54125;SDS011;40360;52.992;6.796;2023-07-31T02:24:06;1.30;;;1.00;;
54125;SDS011;40360;52.992;6.796;2023-07-31T02:26:32;1.33;;;0.85;;
54125;SDS011;40360;52.992;6.796;2023-07-31T02:28:57;1.98;;;1.10;;
54125;SDS011;40360;52.992;6.796;2023-07-31T02:31:26;1.75;;;1.00;;
54125;SDS011;40360;52.992;6.796;2023-07-31T02:33:51;2.88;;;1.27;;
54125;SDS011;40360;52.992;6.796;2023-07-31T02:36:17;2.75;;;1.15;;
54125;SDS011;40360;52.992;6.796;2023-07-31T02:38:43;2.78;;;1.20;;
54125;SDS011;40360;52.992;6.796;2023-07-31T02:41:08;2.28;;;1.02;;
54125;SDS011;40360;52.992;6.796;2023-07-31T02:43:34;1.95;;;1.10;;
54125;SDS011;40360;52.992;6.796;2023-07-31T02:45:59;1.80;;;1.10;;
54125;SDS011;40360;52.992;6.796;2023-07-31T02:48:25;1.92;;;1.08;;
54125;SDS011;40360;52.992;6.796;2023-07-31T02:50:51;2.13;;;1.40;;
54125;SDS011;40360;52.992;6.796;2023-07-31T02:53:16;2.15;;;1.10;;
54125;SDS011;40360;52.992;6.796;2023-07-31T02:55:42;3.28;;;1.58;;
54125;SDS011;40360;52.992;6.796;2023-07-31T02:58:07;2.70;;;1.67;;
54125;SDS011;40360;52.992;6.796;2023-07-31T03:00:33;1.58;;;1.25;;
54125;SDS011;40360;52.992;6.796;2023-07-31T03:02:59;2.25;;;1.23;;
54125;SDS011;40360;52.992;6.796;2023-07-31T03:05:24;1.92;;;1.17;;
54125;SDS011;40360;52.992;6.796;2023-07-31T03:07:50;2.22;;;1.10;;
54125;SDS011;40360;52.992;6.796;2023-07-31T03:10:15;1.15;;;1.05;;
54125;SDS011;40360;52.992;6.796;2023-07-31T03:12:41;2.35;;;1.30;;
54125;SDS011;40360;52.992;6.796;2023-07-31T03:15:07;1.67;;;1.00;;
54125;SDS011;40360;52.992;6.796;2023-07-31T03:17:33;1.60;;;1.50;;
54125;SDS011;40360;52.992;6.796;2023-07-31T03:19:58;1.65;;;1.48;;
54125;SDS011;40360;52.992;6.796;2023-07-31T03:22:24;1.27;;;1.00;;
54125;SDS011;40360;52.992;6.796;2023-07-31T03:24:49;2.08;;;1.23;;
54125;SDS011;40360;52.992;6.796;2023-07-31T03:27:15;1.52;;;1.20;;
54125;SDS011;40360;52.992;6.796;2023-07-31T03:29:41;1.10;;;1.00;;
54125;SDS011;40360;52.992;6.796;2023-07-31T03:32:06;1.92;;;1.15;;
54125;SDS011;40360;52.992;6.796;2023-07-31T03:34:32;1.85;;;1.20;;
54125;SDS011;40360;52.992;6.796;2023-07-31T03:36:58;1.63;;;1.20;;
54125;SDS011;40360;52.992;6.796;2023-07-31T03:39:23;1.90;;;0.93;;
54125;SDS011;40360;52.992;6.796;2023-07-31T03:41:49;1.50;;;1.02;;
54125;SDS011;40360;52.992;6.796;2023-07-31T03:44:15;1.15;;;1.02;;
54125;SDS011;40360;52.992;6.796;2023-07-31T03:46:40;1.60;;;1.25;;
54125;SDS011;40360;52.992;6.796;2023-07-31T03:49:06;2.92;;;1.95;;
54125;SDS011;40360;52.992;6.796;2023-07-31T03:51:32;2.53;;;1.70;;
54125;SDS011;40360;52.992;6.796;2023-07-31T03:53:57;3.15;;;1.50;;
54125;SDS011;40360;52.992;6.796;2023-07-31T03:56:23;1.77;;;1.40;;
54125;SDS011;40360;52.992;6.796;2023-07-31T03:58:48;2.50;;;1.73;;
54125;SDS011;40360;52.992;6.796;2023-07-31T04:01:14;1.83;;;1.30;;
54125;SDS011;40360;52.992;6.796;2023-07-31T04:03:40;3.72;;;1.17;;
54125;SDS011;40360;52.992;6.796;2023-07-31T04:06:05;2.55;;;1.20;;
54125;SDS011;40360;52.992;6.796;2023-07-31T04:08:32;2.75;;;1.10;;
54125;SDS011;40360;52.992;6.796;2023-07-31T04:10:58;2.05;;;0.82;;
54125;SDS011;40360;52.992;6.796;2023-07-31T04:13:23;0.90;;;0.80;;
54125;SDS011;40360;52.992;6.796;2023-07-31T04:15:49;1.13;;;0.68;;
54125;SDS011;40360;52.992;6.796;2023-07-31T04:18:17;1.58;;;1.23;;
54125;SDS011;40360;52.992;6.796;2023-07-31T04:20:43;2.25;;;1.00;;
54125;SDS011;40360;52.992;6.796;2023-07-31T04:23:09;1.75;;;0.90;;
54125;SDS011;40360;52.992;6.796;2023-07-31T04:25:34;2.58;;;1.00;;
54125;SDS011;40360;52.992;6.796;2023-07-31T04:28:00;0.95;;;0.80;;
54125;SDS011;40360;52.992;6.796;2023-07-31T04:30:26;2.08;;;1.15;;
54125;SDS011;40360;52.992;6.796;2023-07-31T04:32:51;1.00;;;0.90;;
54125;SDS011;40360;52.992;6.796;2023-07-31T04:35:17;1.95;;;1.10;;
54125;SDS011;40360;52.992;6.796;2023-07-31T04:37:43;2.00;;;0.95;;
54125;SDS011;40360;52.992;6.796;2023-07-31T04:40:11;1.98;;;1.10;;
54125;SDS011;40360;52.992;6.796;2023-07-31T04:42:37;1.42;;;1.10;;
54125;SDS011;40360;52.992;6.796;2023-07-31T04:45:02;2.47;;;1.45;;
54125;SDS011;40360;52.992;6.796;2023-07-31T04:47:30;2.83;;;1.23;;
54125;SDS011;40360;52.992;6.796;2023-07-31T04:49:55;1.85;;;1.20;;
54125;SDS011;40360;52.992;6.796;2023-07-31T04:52:21;1.58;;;0.93;;
54125;SDS011;40360;52.992;6.796;2023-07-31T04:54:46;1.75;;;1.00;;
54125;SDS011;40360;52.992;6.796;2023-07-31T04:57:12;0.93;;;0.80;;
54125;SDS011;40360;52.992;6.796;2023-07-31T04:59:38;1.83;;;1.05;;
54125;SDS011;40360;52.992;6.796;2023-07-31T05:02:03;1.73;;;0.80;;
54125;SDS011;40360;52.992;6.796;2023-07-31T05:04:29;1.83;;;0.68;;
54125;SDS011;40360;52.992;6.796;2023-07-31T05:06:55;1.75;;;0.75;;
54125;SDS011;40360;52.992;6.796;2023-07-31T05:09:21;0.68;;;0.60;;
54125;SDS011;40360;52.992;6.796;2023-07-31T05:11:46;1.48;;;0.80;;
54125;SDS011;40360;52.992;6.796;2023-07-31T05:14:12;4.20;;;1.25;;
54125;SDS011;40360;52.992;6.796;2023-07-31T05:16:38;3.22;;;1.38;;
54125;SDS011;40360;52.992;6.796;2023-07-31T05:19:04;3.20;;;1.30;;
54125;SDS011;40360;52.992;6.796;2023-07-31T05:21:30;3.15;;;1.15;;
54125;SDS011;40360;52.992;6.796;2023-07-31T05:23:55;2.42;;;1.25;;
54125;SDS011;40360;52.992;6.796;2023-07-31T05:26:21;3.92;;;1.75;;
54125;SDS011;40360;52.992;6.796;2023-07-31T05:28:46;4.43;;;1.52;;
54125;SDS011;40360;52.992;6.796;2023-07-31T05:31:12;2.72;;;1.45;;
54125;SDS011;40360;52.992;6.796;2023-07-31T05:33:38;4.43;;;2.33;;
54125;SDS011;40360;52.992;6.796;2023-07-31T05:36:03;4.78;;;2.20;;
54125;SDS011;40360;52.992;6.796;2023-07-31T05:38:29;4.35;;;2.33;;
54125;SDS011;40360;52.992;6.796;2023-07-31T05:40:55;4.97;;;2.50;;
54125;SDS011;40360;52.992;6.796;2023-07-31T05:43:20;11.45;;;4.00;;
54125;SDS011;40360;52.992;6.796;2023-07-31T06:01:58;17.48;;;7.63;;
54125;SDS011;40360;52.992;6.796;2023-07-31T06:04:24;15.65;;;8.45;;
54125;SDS011;40360;52.992;6.796;2023-07-31T06:06:50;14.75;;;7.82;;
54125;SDS011;40360;52.992;6.796;2023-07-31T06:09:16;17.02;;;7.35;;
54125;SDS011;40360;52.992;6.796;2023-07-31T06:11:42;18.98;;;8.40;;
54125;SDS011;40360;52.992;6.796;2023-07-31T06:14:08;18.48;;;7.70;;
54125;SDS011;40360;52.992;6.796;2023-07-31T06:16:34;22.85;;;9.02;;
54125;SDS011;40360;52.992;6.796;2023-07-31T06:18:59;18.50;;;7.93;;
54125;SDS011;40360;52.992;6.796;2023-07-31T06:21:25;22.98;;;10.02;;
54125;SDS011;40360;52.992;6.796;2023-07-31T06:23:51;18.77;;;8.15;;
54125;SDS011;40360;52.992;6.796;2023-07-31T06:26:16;21.92;;;9.13;;
54125;SDS011;40360;52.992;6.796;2023-07-31T06:28:42;21.42;;;9.07;;
54125;SDS011;40360;52.992;6.796;2023-07-31T06:31:08;21.55;;;8.77;;
54125;SDS011;40360;52.992;6.796;2023-07-31T06:33:33;20.13;;;8.77;;
54125;SDS011;40360;52.992;6.796;2023-07-31T06:35:59;26.73;;;10.20;;
54125;SDS011;40360;52.992;6.796;2023-07-31T06:38:25;24.23;;;9.20;;
54125;SDS011;40360;52.992;6.796;2023-07-31T06:40:52;19.85;;;8.65;;
54125;SDS011;40360;52.992;6.796;2023-07-31T06:43:18;18.45;;;7.13;;
54125;SDS011;40360;52.992;6.796;2023-07-31T06:45:43;18.48;;;7.28;;
54125;SDS011;40360;52.992;6.796;2023-07-31T06:48:09;15.77;;;7.07;;
54125;SDS011;40360;52.992;6.796;2023-07-31T06:50:35;16.33;;;7.18;;
54125;SDS011;40360;52.992;6.796;2023-07-31T06:53:00;17.73;;;6.68;;
54125;SDS011;40360;52.992;6.796;2023-07-31T06:55:27;19.20;;;7.88;;
54125;SDS011;40360;52.992;6.796;2023-07-31T06:57:53;13.73;;;7.07;;
54125;SDS011;40360;52.992;6.796;2023-07-31T07:00:20;17.42;;;8.00;;
54125;SDS011;40360;52.992;6.796;2023-07-31T07:02:47;14.30;;;6.90;;
54125;SDS011;40360;52.992;6.796;2023-07-31T07:05:13;19.05;;;8.27;;
54125;SDS011;40360;52.992;6.796;2023-07-31T07:07:39;26.10;;;9.50;;
54125;SDS011;40360;52.992;6.796;2023-07-31T07:10:06;19.17;;;8.15;;
54125;SDS011;40360;52.992;6.796;2023-07-31T07:12:32;21.75;;;8.57;;
54125;SDS011;40360;52.992;6.796;2023-07-31T07:14:58;18.38;;;8.43;;
54125;SDS011;40360;52.992;6.796;2023-07-31T07:17:27;18.65;;;9.43;;
54125;SDS011;40360;52.992;6.796;2023-07-31T07:19:53;23.90;;;10.07;;
54125;SDS011;40360;52.992;6.796;2023-07-31T07:22:20;21.92;;;8.63;;
54125;SDS011;40360;52.992;6.796;2023-07-31T07:24:45;17.42;;;8.85;;
54125;SDS011;40360;52.992;6.796;2023-07-31T07:27:11;16.38;;;8.70;;
54125;SDS011;40360;52.992;6.796;2023-07-31T07:29:37;15.07;;;7.82;;
54125;SDS011;40360;52.992;6.796;2023-07-31T07:32:03;20.15;;;8.80;;
54125;SDS011;40360;52.992;6.796;2023-07-31T07:34:29;15.25;;;7.72;;
54125;SDS011;40360;52.992;6.796;2023-07-31T07:36:55;15.98;;;7.55;;
54125;SDS011;40360;52.992;6.796;2023-07-31T07:39:20;11.90;;;6.13;;
54125;SDS011;40360;52.992;6.796;2023-07-31T07:41:46;11.55;;;6.03;;
54125;SDS011;40360;52.992;6.796;2023-07-31T07:44:12;10.40;;;5.43;;
54125;SDS011;40360;52.992;6.796;2023-07-31T07:46:38;11.40;;;5.65;;
54125;SDS011;40360;52.992;6.796;2023-07-31T07:49:04;10.70;;;6.28;;
54125;SDS011;40360;52.992;6.796;2023-07-31T07:51:30;9.77;;;6.28;;
54125;SDS011;40360;52.992;6.796;2023-07-31T07:53:56;10.63;;;6.32;;
54125;SDS011;40360;52.992;6.796;2023-07-31T07:56:23;10.70;;;5.25;;
54125;SDS011;40360;52.992;6.796;2023-07-31T07:58:49;11.90;;;6.18;;
54125;SDS011;40360;52.992;6.796;2023-07-31T08:01:15;6.78;;;4.90;;
54125;SDS011;40360;52.992;6.796;2023-07-31T08:03:41;9.73;;;5.65;;
54125;SDS011;40360;52.992;6.796;2023-07-31T08:06:07;7.10;;;5.00;;
54125;SDS011;40360;52.992;6.796;2023-07-31T08:08:34;8.98;;;5.40;;
54125;SDS011;40360;52.992;6.796;2023-07-31T08:11:00;9.70;;;4.80;;
54125;SDS011;40360;52.992;6.796;2023-07-31T08:13:25;9.43;;;5.30;;
54125;SDS011;40360;52.992;6.796;2023-07-31T08:15:51;9.18;;;3.90;;
54125;SDS011;40360;52.992;6.796;2023-07-31T08:18:17;9.18;;;4.72;;
54125;SDS011;40360;52.992;6.796;2023-07-31T08:20:42;8.13;;;4.50;;
54125;SDS011;40360;52.992;6.796;2023-07-31T08:23:08;6.82;;;3.80;;
54125;SDS011;40360;52.992;6.796;2023-07-31T08:25:34;8.23;;;3.83;;
54125;SDS011;40360;52.992;6.796;2023-07-31T08:28:01;5.72;;;3.60;;
54125;SDS011;40360;52.992;6.796;2023-07-31T08:30:27;7.35;;;3.90;;
54125;SDS011;40360;52.992;6.796;2023-07-31T08:32:52;6.13;;;3.30;;
54125;SDS011;40360;52.992;6.796;2023-07-31T08:35:18;6.80;;;3.88;;
54125;SDS011;40360;52.992;6.796;2023-07-31T08:37:44;6.70;;;3.55;;
54125;SDS011;40360;52.992;6.796;2023-07-31T08:40:09;7.03;;;3.90;;
54125;SDS011;40360;52.992;6.796;2023-07-31T08:42:45;4.10;;;2.42;;
54125;SDS011;40360;52.992;6.796;2023-07-31T08:45:15;4.38;;;2.75;;
54125;SDS011;40360;52.992;6.796;2023-07-31T08:47:45;4.97;;;2.75;;
54125;SDS011;40360;52.992;6.796;2023-07-31T08:50:16;6.07;;;2.70;;
54125;SDS011;40360;52.992;6.796;2023-07-31T08:52:43;5.43;;;2.55;;
54125;SDS011;40360;52.992;6.796;2023-07-31T08:55:10;4.70;;;2.72;;
54125;SDS011;40360;52.992;6.796;2023-07-31T08:57:37;4.43;;;2.55;;
54125;SDS011;40360;52.992;6.796;2023-07-31T09:00:04;4.70;;;2.53;;
54125;SDS011;40360;52.992;6.796;2023-07-31T09:02:34;3.63;;;2.65;;
54125;SDS011;40360;52.992;6.796;2023-07-31T09:05:10;3.28;;;2.60;;
54125;SDS011;40360;52.992;6.796;2023-07-31T09:07:36;4.07;;;2.45;;
54125;SDS011;40360;52.992;6.796;2023-07-31T09:10:03;3.28;;;2.33;;
54125;SDS011;40360;52.992;6.796;2023-07-31T09:12:29;3.30;;;2.05;;
54125;SDS011;40360;52.992;6.796;2023-07-31T09:14:59;4.85;;;2.45;;
54125;SDS011;40360;52.992;6.796;2023-07-31T09:17:29;4.07;;;2.40;;
54125;SDS011;40360;52.992;6.796;2023-07-31T09:19:56;3.65;;;2.28;;
54125;SDS011;40360;52.992;6.796;2023-07-31T09:22:31;2.78;;;2.25;;
54125;SDS011;40360;52.992;6.796;2023-07-31T09:25:03;3.03;;;2.10;;
54125;SDS011;40360;52.992;6.796;2023-07-31T09:27:48;2.75;;;1.80;;
54125;SDS011;40360;52.992;6.796;2023-07-31T09:30:15;3.42;;;1.75;;
54125;SDS011;40360;52.992;6.796;2023-07-31T09:32:45;1.35;;;1.25;;
54125;SDS011;40360;52.992;6.796;2023-07-31T09:35:22;4.30;;;1.88;;
54125;SDS011;40360;52.992;6.796;2023-07-31T09:40:28;1.40;;;1.10;;
54125;SDS011;40360;52.992;6.796;2023-07-31T09:42:58;1.73;;;1.08;;
54125;SDS011;40360;52.992;6.796;2023-07-31T09:45:36;3.13;;;1.20;;
54125;SDS011;40360;52.992;6.796;2023-07-31T09:50:39;1.98;;;1.20;;
54125;SDS011;40360;52.992;6.796;2023-07-31T09:53:06;1.02;;;0.90;;
54125;SDS011;40360;52.992;6.796;2023-07-31T09:55:33;2.13;;;0.77;;
54125;SDS011;40360;52.992;6.796;2023-07-31T09:57:59;1.25;;;0.88;;
54125;SDS011;40360;52.992;6.796;2023-07-31T10:00:34;1.50;;;0.98;;
54125;SDS011;40360;52.992;6.796;2023-07-31T10:03:01;1.77;;;0.88;;
54125;SDS011;40360;52.992;6.796;2023-07-31T10:05:36;2.50;;;1.92;;
54125;SDS011;40360;52.992;6.796;2023-07-31T10:08:06;1.08;;;0.98;;
54125;SDS011;40360;52.992;6.796;2023-07-31T10:10:32;1.13;;;0.80;;
54125;SDS011;40360;52.992;6.796;2023-07-31T10:13:05;1.80;;;0.98;;
54125;SDS011;40360;52.992;6.796;2023-07-31T10:15:31;1.35;;;0.90;;
54125;SDS011;40360;52.992;6.796;2023-07-31T10:17:57;1.05;;;0.88;;
54125;SDS011;40360;52.992;6.796;2023-07-31T10:20:24;1.67;;;0.90;;
54125;SDS011;40360;52.992;6.796;2023-07-31T10:22:51;1.15;;;0.90;;
54125;SDS011;40360;52.992;6.796;2023-07-31T10:25:18;1.55;;;1.17;;
54125;SDS011;40360;52.992;6.796;2023-07-31T10:27:44;0.95;;;0.70;;
54125;SDS011;40360;52.992;6.796;2023-07-31T10:30:12;0.70;;;0.70;;
54125;SDS011;40360;52.992;6.796;2023-07-31T10:32:41;0.70;;;0.70;;
54125;SDS011;40360;52.992;6.796;2023-07-31T10:35:08;1.35;;;1.10;;
54125;SDS011;40360;52.992;6.796;2023-07-31T10:40:37;0.93;;;0.90;;
54125;SDS011;40360;52.992;6.796;2023-07-31T10:42:56;1.10;;;0.88;;
54125;SDS011;40360;52.992;6.796;2023-07-31T10:45:32;0.70;;;0.70;;
54125;SDS011;40360;52.992;6.796;2023-07-31T10:50:29;0.85;;;0.85;;
54125;SDS011;40360;52.992;6.796;2023-07-31T10:52:58;0.95;;;0.85;;
54125;SDS011;40360;52.992;6.796;2023-07-31T10:55:43;1.77;;;1.10;;
54125;SDS011;40360;52.992;6.796;2023-07-31T10:58:18;0.82;;;0.82;;
54125;SDS011;40360;52.992;6.796;2023-07-31T11:00:45;1.08;;;1.00;;
54125;SDS011;40360;52.992;6.796;2023-07-31T11:03:13;1.13;;;1.00;;
54125;SDS011;40360;52.992;6.796;2023-07-31T11:08:27;0.90;;;0.90;;
54125;SDS011;40360;52.992;6.796;2023-07-31T11:15:54;1.17;;;0.98;;
54125;SDS011;40360;52.992;6.796;2023-07-31T11:18:19;1.90;;;0.70;;
54125;SDS011;40360;52.992;6.796;2023-07-31T11:20:45;0.70;;;0.70;;
54125;SDS011;40360;52.992;6.796;2023-07-31T11:23:11;0.80;;;0.70;;
54125;SDS011;40360;52.992;6.796;2023-07-31T11:25:38;0.68;;;0.60;;
54125;SDS011;40360;52.992;6.796;2023-07-31T11:28:10;1.05;;;0.60;;
54125;SDS011;40360;52.992;6.796;2023-07-31T11:30:37;0.50;;;0.50;;
54125;SDS011;40360;52.992;6.796;2023-07-31T11:33:04;0.70;;;0.50;;
54125;SDS011;40360;52.992;6.796;2023-07-31T11:35:35;0.52;;;0.52;;
54125;SDS011;40360;52.992;6.796;2023-07-31T11:40:40;0.60;;;0.60;;
54125;SDS011;40360;52.992;6.796;2023-07-31T11:43:09;0.60;;;0.57;;
54125;SDS011;40360;52.992;6.796;2023-07-31T11:45:36;1.90;;;0.68;;
54125;SDS011;40360;52.992;6.796;2023-07-31T11:48:03;1.60;;;0.65;;
54125;SDS011;40360;52.992;6.796;2023-07-31T11:50:29;0.50;;;0.50;;
54125;SDS011;40360;52.992;6.796;2023-07-31T11:53:01;1.67;;;0.80;;
54125;SDS011;40360;52.992;6.796;2023-07-31T11:55:31;1.30;;;0.43;;
54125;SDS011;40360;52.992;6.796;2023-07-31T11:57:57;1.10;;;0.52;;
54125;SDS011;40360;52.992;6.796;2023-07-31T12:00:23;0.45;;;0.45;;
54125;SDS011;40360;52.992;6.796;2023-07-31T12:02:50;0.52;;;0.40;;
54125;SDS011;40360;52.992;6.796;2023-07-31T12:05:16;1.83;;;0.60;;
54125;SDS011;40360;52.992;6.796;2023-07-31T12:07:52;1.80;;;0.43;;
54125;SDS011;40360;52.992;6.796;2023-07-31T12:10:25;0.40;;;0.40;;
54125;SDS011;40360;52.992;6.796;2023-07-31T12:18:04;1.67;;;0.90;;
54125;SDS011;40360;52.992;6.796;2023-07-31T12:20:31;0.55;;;0.43;;
54125;SDS011;40360;52.992;6.796;2023-07-31T12:22:57;1.50;;;0.80;;
54125;SDS011;40360;52.992;6.796;2023-07-31T12:25:28;1.00;;;0.55;;
54125;SDS011;40360;52.992;6.796;2023-07-31T12:27:54;1.85;;;0.80;;
54125;SDS011;40360;52.992;6.796;2023-07-31T12:30:29;0.77;;;0.60;;
54125;SDS011;40360;52.992;6.796;2023-07-31T12:33:34;1.42;;;0.80;;
54125;SDS011;40360;52.992;6.796;2023-07-31T12:36:02;0.52;;;0.52;;
54125;SDS011;40360;52.992;6.796;2023-07-31T12:38:31;1.13;;;0.57;;
54125;SDS011;40360;52.992;6.796;2023-07-31T12:40:57;0.70;;;0.60;;
54125;SDS011;40360;52.992;6.796;2023-07-31T12:43:22;2.33;;;1.02;;
54125;SDS011;40360;52.992;6.796;2023-07-31T12:45:48;2.50;;;1.38;;
54125;SDS011;40360;52.992;6.796;2023-07-31T12:48:14;1.85;;;1.30;;
54125;SDS011;40360;52.992;6.796;2023-07-31T12:50:40;2.45;;;1.30;;
54125;SDS011;40360;52.992;6.796;2023-07-31T12:53:05;2.20;;;1.50;;
54125;SDS011;40360;52.992;6.796;2023-07-31T12:55:31;2.85;;;1.20;;
54125;SDS011;40360;52.992;6.796;2023-07-31T12:58:00;3.60;;;1.52;;
54125;SDS011;40360;52.992;6.796;2023-07-31T13:00:26;1.83;;;1.45;;
54125;SDS011;40360;52.992;6.796;2023-07-31T13:02:52;2.72;;;1.27;;
54125;SDS011;40360;52.992;6.796;2023-07-31T13:05:18;3.03;;;1.50;;
54125;SDS011;40360;52.992;6.796;2023-07-31T13:07:45;1.52;;;1.30;;
54125;SDS011;40360;52.992;6.796;2023-07-31T13:10:11;2.00;;;1.02;;
54125;SDS011;40360;52.992;6.796;2023-07-31T13:12:37;2.25;;;1.35;;
54125;SDS011;40360;52.992;6.796;2023-07-31T13:15:03;3.08;;;1.13;;
54125;SDS011;40360;52.992;6.796;2023-07-31T13:17:30;2.58;;;1.02;;
54125;SDS011;40360;52.992;6.796;2023-07-31T13:19:55;2.67;;;1.20;;
54125;SDS011;40360;52.992;6.796;2023-07-31T13:22:21;1.67;;;1.20;;
54125;SDS011;40360;52.992;6.796;2023-07-31T13:24:46;4.32;;;1.40;;
54125;SDS011;40360;52.992;6.796;2023-07-31T13:27:12;2.38;;;1.40;;
54125;SDS011;40360;52.992;6.796;2023-07-31T13:29:38;3.63;;;1.60;;
54125;SDS011;40360;52.992;6.796;2023-07-31T13:32:05;3.55;;;1.70;;
54125;SDS011;40360;52.992;6.796;2023-07-31T13:34:31;3.10;;;1.58;;
54125;SDS011;40360;52.992;6.796;2023-07-31T13:36:56;4.95;;;2.45;;
54125;SDS011;40360;52.992;6.796;2023-07-31T13:39:22;4.43;;;1.73;;
54125;SDS011;40360;52.992;6.796;2023-07-31T13:41:47;3.95;;;1.73;;
54125;SDS011;40360;52.992;6.796;2023-07-31T13:44:13;5.30;;;2.03;;
54125;SDS011;40360;52.992;6.796;2023-07-31T13:46:39;4.03;;;2.40;;
54125;SDS011;40360;52.992;6.796;2023-07-31T13:49:05;5.82;;;2.70;;
54125;SDS011;40360;52.992;6.796;2023-07-31T13:51:31;5.45;;;2.58;;
54125;SDS011;40360;52.992;6.796;2023-07-31T13:53:56;5.07;;;2.55;;
54125;SDS011;40360;52.992;6.796;2023-07-31T13:56:22;7.07;;;2.75;;
54125;SDS011;40360;52.992;6.796;2023-07-31T13:58:47;6.30;;;3.20;;
54125;SDS011;40360;52.992;6.796;2023-07-31T14:01:13;8.27;;;3.03;;
54125;SDS011;40360;52.992;6.796;2023-07-31T14:03:38;7.90;;;2.85;;
54125;SDS011;40360;52.992;6.796;2023-07-31T14:06:04;12.45;;;3.38;;
54125;SDS011;40360;52.992;6.796;2023-07-31T14:08:30;8.30;;;3.03;;
54125;SDS011;40360;52.992;6.796;2023-07-31T14:10:56;5.82;;;2.80;;
54125;SDS011;40360;52.992;6.796;2023-07-31T14:13:21;6.55;;;3.22;;
54125;SDS011;40360;52.992;6.796;2023-07-31T14:15:47;12.98;;;4.22;;
54125;SDS011;40360;52.992;6.796;2023-07-31T14:18:13;7.43;;;3.33;;
54125;SDS011;40360;52.992;6.796;2023-07-31T14:20:38;11.18;;;3.38;;
54125;SDS011;40360;52.992;6.796;2023-07-31T14:23:04;7.20;;;3.20;;
54125;SDS011;40360;52.992;6.796;2023-07-31T14:25:30;8.32;;;3.25;;
54125;SDS011;40360;52.992;6.796;2023-07-31T14:27:55;7.50;;;3.10;;
54125;SDS011;40360;52.992;6.796;2023-07-31T14:30:21;10.52;;;3.30;;
54125;SDS011;40360;52.992;6.796;2023-07-31T14:32:46;6.00;;;2.85;;
54125;SDS011;40360;52.992;6.796;2023-07-31T14:35:12;7.40;;;3.08;;
54125;SDS011;40360;52.992;6.796;2023-07-31T14:37:42;6.47;;;3.45;;
54125;SDS011;40360;52.992;6.796;2023-07-31T14:40:09;7.97;;;3.47;;
54125;SDS011;40360;52.992;6.796;2023-07-31T14:42:36;5.93;;;2.75;;
54125;SDS011;40360;52.992;6.796;2023-07-31T14:45:03;10.23;;;3.42;;
54125;SDS011;40360;52.992;6.796;2023-07-31T14:47:32;9.80;;;3.53;;
54125;SDS011;40360;52.992;6.796;2023-07-31T14:49:58;7.97;;;3.83;;
54125;SDS011;40360;52.992;6.796;2023-07-31T14:52:24;7.82;;;3.47;;
54125;SDS011;40360;52.992;6.796;2023-07-31T14:54:50;11.75;;;3.78;;
54125;SDS011;40360;52.992;6.796;2023-07-31T14:57:16;11.68;;;4.32;;
54125;SDS011;40360;52.992;6.796;2023-07-31T14:59:41;8.35;;;3.72;;
54125;SDS011;40360;52.992;6.796;2023-07-31T15:02:08;11.55;;;3.30;;
54125;SDS011;40360;52.992;6.796;2023-07-31T15:04:35;4.82;;;3.58;;
54125;SDS011;40360;52.992;6.796;2023-07-31T15:07:00;8.25;;;4.15;;
54125;SDS011;40360;52.992;6.796;2023-07-31T15:09:26;7.85;;;3.85;;
54125;SDS011;40360;52.992;6.796;2023-07-31T15:11:52;6.57;;;3.33;;
54125;SDS011;40360;52.992;6.796;2023-07-31T15:14:18;8.23;;;3.47;;
54125;SDS011;40360;52.992;6.796;2023-07-31T15:16:44;7.55;;;3.78;;
54125;SDS011;40360;52.992;6.796;2023-07-31T15:19:09;5.82;;;2.97;;
54125;SDS011;40360;52.992;6.796;2023-07-31T15:21:38;7.50;;;3.17;;
54125;SDS011;40360;52.992;6.796;2023-07-31T15:24:03;8.07;;;3.30;;
54125;SDS011;40360;52.992;6.796;2023-07-31T15:26:29;11.30;;;3.53;;
54125;SDS011;40360;52.992;6.796;2023-07-31T15:28:56;7.82;;;3.42;;